Time;durP1;ratioP1;P1;durP2;ratioP2;P2;SDS_P1;SDS_P2;PMS_P1;PMS_P2;Temp;Humidity;BMP_temperature;BMP_pressure;BME280_temperature;BME280_humidity;BME280_pressure;Samples;Min_cycle;Max_cycle;Signal;HPM_P1;HPM_P2
2023/04/07 03:02:55;;;;;;;0.95;0.85;;;16.00;49.70;;;;;;4981957;28;45101;-66
2023/04/07 03:05:21;;;;;;;1.55;1.05;;;16.00;49.80;;;;;;4983255;28;45146;-67
2023/04/07 03:07:46;;;;;;;1.38;1.00;;;16.00;49.80;;;;;;4997172;28;45508;-67
2023/04/07 03:10:12;;;;;;;1.05;0.88;;;16.00;49.80;;;;;;4973388;28;44991;-66
2023/04/07 03:12:37;;;;;;;1.17;0.90;;;16.00;49.80;;;;;;4991876;28;45157;-66
2023/04/07 03:15:03;;;;;;;1.30;1.15;;;16.00;49.80;;;;;;4987897;28;45546;-67
2023/04/07 03:17:30;;;;;;;1.65;0.98;;;16.00;49.80;;;;;;4971061;28;45180;-66
2023/04/07 03:19:55;;;;;;;1.58;1.00;;;16.00;49.80;;;;;;4961285;28;45478;-66
2023/04/07 03:22:21;;;;;;;1.63;1.02;;;15.90;49.70;;;;;;4986039;28;44949;-66
2023/04/07 03:24:46;;;;;;;1.13;0.90;;;16.00;49.80;;;;;;4952004;28;45608;-66
2023/04/07 03:27:12;;;;;;;1.23;1.02;;;15.90;49.70;;;;;;4989155;28;45202;-66
2023/04/07 03:29:37;;;;;;;1.08;0.98;;;15.90;49.70;;;;;;4995053;28;45980;-66
2023/04/07 03:32:03;;;;;;;1.02;0.90;;;15.90;49.80;;;;;;4982765;28;45050;-66
2023/04/07 03:34:29;;;;;;;1.05;0.90;;;15.90;49.70;;;;;;4964331;28;45508;-66
2023/04/07 03:36:54;;;;;;;3.35;1.42;;;15.90;49.70;;;;;;4974827;28;46156;-66
2023/04/07 03:39:20;;;;;;;2.05;1.02;;;15.90;49.80;;;;;;4974446;28;45307;-66
2023/04/07 03:41:45;;;;;;;1.40;1.20;;;15.90;49.80;;;;;;4986187;28;45689;-66
2023/04/07 03:44:11;;;;;;;1.58;1.27;;;15.90;49.80;;;;;;4979459;28;45308;-66
2023/04/07 03:46:37;;;;;;;1.00;0.88;;;15.90;49.80;;;;;;4959851;28;45124;-66
2023/04/07 03:49:02;;;;;;;1.45;1.00;;;15.90;49.80;;;;;;4979474;28;46004;-66
2023/04/07 03:51:28;;;;;;;1.88;1.25;;;15.90;49.80;;;;;;4975640;28;45157;-66
2023/04/07 03:53:53;;;;;;;1.20;1.10;;;15.90;49.70;;;;;;4964083;28;45015;-66
2023/04/07 03:56:19;;;;;;;1.20;1.10;;;15.90;49.70;;;;;;4958320;28;44982;-66
2023/04/07 03:58:45;;;;;;;1.10;1.00;;;15.90;49.70;;;;;;4993979;28;45601;-66
2023/04/07 04:01:11;;;;;;;1.83;1.02;;;15.80;49.70;;;;;;4977321;28;44779;-66
2023/04/07 04:03:36;;;;;;;1.10;1.00;;;15.80;49.80;;;;;;4994746;28;45360;-66
2023/04/07 04:06:02;;;;;;;0.90;0.82;;;15.80;49.80;;;;;;4978740;28;44618;-67
2023/04/07 04:08:28;;;;;;;1.98;1.10;;;15.80;49.80;;;;;;4978896;28;45925;-66
2023/04/07 04:10:53;;;;;;;1.20;1.08;;;15.90;49.80;;;;;;4986166;28;45027;-66
2023/04/07 04:13:19;;;;;;;1.30;1.10;;;15.80;50.30;;;;;;4943197;28;45982;-66
2023/04/07 04:15:45;;;;;;;1.15;1.00;;;15.80;49.70;;;;;;4974950;28;45425;-66
2023/04/07 04:18:10;;;;;;;1.10;0.98;;;15.80;49.70;;;;;;4995673;28;46066;-66
2023/04/07 04:20:36;;;;;;;1.17;1.02;;;15.80;49.80;;;;;;4991606;28;45238;-66
2023/04/07 04:23:02;;;;;;;1.88;1.20;;;15.80;49.80;;;;;;4948649;28;46098;-68
2023/04/07 04:25:27;;;;;;;1.33;1.00;;;15.80;49.80;;;;;;4991135;28;45396;-67
2023/04/07 04:27:53;;;;;;;1.92;0.93;;;15.80;49.80;;;;;;4981568;28;45947;-66
2023/04/07 04:30:19;;;;;;;1.65;1.20;;;15.80;49.80;;;;;;4990971;28;45083;-67
2023/04/07 04:32:45;;;;;;;1.48;1.17;;;15.70;49.80;;;;;;4960032;28;45409;-66
2023/04/07 04:35:10;;;;;;;1.30;1.20;;;15.80;49.80;;;;;;4991747;28;45122;-67
2023/04/07 04:37:36;;;;;;;1.13;1.00;;;15.80;49.80;;;;;;4974914;28;45893;-66
2023/04/07 04:40:01;;;;;;;1.15;1.00;;;15.80;49.80;;;;;;4975378;28;45358;-66
2023/04/07 04:42:27;;;;;;;1.10;1.00;;;15.80;49.80;;;;;;4959591;28;45845;-66
2023/04/07 04:44:52;;;;;;;1.35;1.13;;;15.80;49.80;;;;;;4978107;28;46251;-66
2023/04/07 04:47:18;;;;;;;1.60;1.20;;;15.70;49.80;;;;;;4973913;28;47248;-66
2023/04/07 04:49:44;;;;;;;1.10;1.00;;;15.80;49.80;;;;;;4998023;28;44985;-66
2023/04/07 04:52:09;;;;;;;1.02;0.93;;;15.80;49.80;;;;;;4989227;28;45401;-66
2023/04/07 04:54:35;;;;;;;1.30;1.13;;;15.80;49.90;;;;;;4992433;28;45339;-66
2023/04/07 04:57:01;;;;;;;1.25;1.10;;;15.70;49.80;;;;;;4964602;28;45313;-67
2023/04/07 04:59:26;;;;;;;1.10;0.90;;;15.70;49.80;;;;;;4978216;28;44860;-66
2023/04/07 05:01:52;;;;;;;1.77;1.10;;;15.70;49.80;;;;;;4983245;28;45256;-66
2023/04/07 05:04:17;;;;;;;1.88;1.20;;;15.70;49.80;;;;;;4974460;28;46425;-66
2023/04/07 05:06:43;;;;;;;1.20;1.10;;;15.70;49.80;;;;;;4989330;28;45014;-66
2023/04/07 05:09:08;;;;;;;1.60;1.40;;;15.70;49.80;;;;;;4977188;28;45044;-66
2023/04/07 05:11:34;;;;;;;1.40;1.10;;;15.70;49.80;;;;;;4974116;28;45570;-66
2023/04/07 05:14:00;;;;;;;1.20;1.10;;;15.70;49.80;;;;;;4992266;28;45246;-66
2023/04/07 05:16:25;;;;;;;1.30;1.05;;;15.70;49.90;;;;;;4979753;28;45895;-66
2023/04/07 05:18:51;;;;;;;0.95;0.88;;;15.70;49.80;;;;;;4957267;28;45271;-66
2023/04/07 05:21:19;;;;;;;1.08;1.00;;;15.70;49.90;;;;;;4973540;28;45435;-66
2023/04/07 05:23:44;;;;;;;1.08;0.98;;;15.70;49.80;;;;;;4975850;28;45258;-66
2023/04/07 05:26:10;;;;;;;1.13;1.02;;;15.70;49.80;;;;;;4969036;28;46198;-66
2023/04/07 05:28:36;;;;;;;1.65;1.02;;;15.70;49.80;;;;;;4978375;28;45537;-67
2023/04/07 05:31:01;;;;;;;1.17;1.00;;;15.70;49.80;;;;;;4948790;28;45424;-66
2023/04/07 05:33:27;;;;;;;1.08;0.98;;;15.70;49.80;;;;;;4959015;28;45538;-66
2023/04/07 05:35:53;;;;;;;0.90;0.85;;;15.70;49.80;;;;;;4972633;28;46016;-67
2023/04/07 05:38:18;;;;;;;1.15;0.85;;;15.70;49.80;;;;;;4991411;28;45139;-66
2023/04/07 05:40:44;;;;;;;1.45;1.05;;;15.70;49.80;;;;;;4985640;28;45458;-66
2023/04/07 05:43:09;;;;;;;1.20;1.08;;;15.70;49.80;;;;;;4991111;28;45249;-66
2023/04/07 05:45:35;;;;;;;1.23;1.05;;;15.70;49.80;;;;;;4955732;28;48372;-66
2023/04/07 05:48:01;;;;;;;1.65;1.33;;;15.70;50.40;;;;;;4991839;28;45363;-66
2023/04/07 05:50:26;;;;;;;1.25;1.15;;;15.60;49.80;;;;;;4973507;28;45584;-67
2023/04/07 05:52:52;;;;;;;1.45;1.30;;;15.70;49.70;;;;;;4959973;28;45640;-66
2023/04/07 05:55:17;;;;;;;1.50;1.40;;;15.70;49.60;;;;;;4957065;28;47769;-66
2023/04/07 05:57:43;;;;;;;1.70;1.40;;;15.80;49.50;;;;;;4944610;28;45624;-68
2023/04/07 06:00:09;;;;;;;1.30;1.20;;;15.80;49.40;;;;;;4958051;28;45307;-67
2023/04/07 06:02:35;;;;;;;1.50;1.40;;;15.90;49.20;;;;;;4956633;28;46307;-66
2023/04/07 06:05:01;;;;;;;1.30;1.20;;;15.90;49.00;;;;;;4972871;28;46154;-66
2023/04/07 06:07:26;;;;;;;1.67;1.30;;;16.00;48.90;;;;;;4981395;28;45280;-66
2023/04/07 06:09:52;;;;;;;1.13;1.00;;;16.10;48.70;;;;;;4990229;28;45854;-66
2023/04/07 06:12:17;;;;;;;1.58;1.35;;;16.20;48.60;;;;;;4985299;28;45306;-66
2023/04/07 06:14:45;;;;;;;1.30;1.20;;;16.20;48.50;;;;;;4989780;28;45242;-66
2023/04/07 06:17:11;;;;;;;1.60;1.10;;;16.20;48.40;;;;;;4950071;28;45345;-67
2023/04/07 06:19:36;;;;;;;1.25;1.15;;;16.20;48.40;;;;;;4972411;28;45199;-66
2023/04/07 06:22:02;;;;;;;2.22;1.45;;;16.20;48.40;;;;;;4982258;28;45610;-66
2023/04/07 06:24:27;;;;;;;1.35;1.20;;;16.10;48.50;;;;;;4993867;28;45288;-66
2023/04/07 06:26:53;;;;;;;1.60;0.95;;;16.00;48.90;;;;;;4971823;28;45236;-66
2023/04/07 06:29:19;;;;;;;1.25;0.95;;;15.90;49.00;;;;;;4974820;28;45247;-66
2023/04/07 06:31:45;;;;;;;1.38;1.15;;;15.80;49.20;;;;;;4966056;28;45440;-66
2023/04/07 06:34:11;;;;;;;1.27;1.10;;;15.80;49.30;;;;;;4980333;28;45494;-66
2023/04/07 06:36:36;;;;;;;1.42;0.90;;;15.80;49.40;;;;;;4968677;28;46992;-66
2023/04/07 06:39:02;;;;;;;2.00;1.45;;;15.80;49.40;;;;;;4990986;28;45712;-67
2023/04/07 06:41:28;;;;;;;1.33;1.15;;;15.70;49.40;;;;;;4986008;28;45253;-67
2023/04/07 06:43:53;;;;;;;1.30;1.02;;;15.80;49.60;;;;;;4960506;28;47048;-66
2023/04/07 06:46:19;;;;;;;1.48;1.17;;;15.70;49.50;;;;;;4949267;28;45671;-67
2023/04/07 06:48:45;;;;;;;1.38;1.15;;;15.70;49.60;;;;;;4967323;28;45353;-66
2023/04/07 06:51:11;;;;;;;1.15;0.90;;;15.70;49.60;;;;;;4973382;28;45304;-66
2023/04/07 06:53:36;;;;;;;0.68;0.68;;;15.60;49.70;;;;;;4977480;28;45962;-67
2023/04/07 06:56:06;;;;;;;3.20;1.10;;;15.70;49.70;;;;;;4976558;28;44669;-66
2023/04/07 06:58:32;;;;;;;1.20;0.93;;;15.60;49.70;;;;;;4964535;28;45143;-66
2023/04/07 07:00:57;;;;;;;1.35;0.95;;;15.60;49.80;;;;;;4958028;28;45421;-66
2023/04/07 07:03:26;;;;;;;1.17;1.08;;;15.70;49.80;;;;;;4980746;28;45766;-66
2023/04/07 07:05:53;;;;;;;1.13;0.95;;;15.60;49.70;;;;;;4981359;28;45200;-66
2023/04/07 07:08:18;;;;;;;1.60;1.10;;;15.70;49.80;;;;;;4979052;28;45237;-67
2023/04/07 07:10:44;;;;;;;1.00;0.90;;;15.70;49.70;;;;;;4956535;28;45267;-66
2023/04/07 07:13:09;;;;;;;1.58;1.05;;;15.70;49.60;;;;;;4986389;28;45172;-66
2023/04/07 07:15:35;;;;;;;1.13;0.88;;;15.70;49.60;;;;;;4976358;28;45221;-66
2023/04/07 07:18:00;;;;;;;1.40;1.10;;;15.70;49.60;;;;;;4971381;28;44742;-66
2023/04/07 07:20:26;;;;;;;1.33;1.02;;;15.70;49.60;;;;;;4992426;28;45425;-67
2023/04/07 07:22:52;;;;;;;1.20;1.00;;;15.70;49.60;;;;;;4980085;28;46226;-66
2023/04/07 07:25:18;;;;;;;1.20;0.93;;;15.70;49.50;;;;;;4972468;28;45261;-67
2023/04/07 07:27:43;;;;;;;1.25;1.10;;;15.70;49.50;;;;;;4977898;28;45366;-66
2023/04/07 07:30:10;;;;;;;1.33;1.23;;;15.70;49.50;;;;;;4991198;28;45177;-68
2023/04/07 07:32:35;;;;;;;1.10;1.00;;;15.70;49.50;;;;;;4971543;28;45860;-66
2023/04/07 07:35:01;;;;;;;1.42;1.20;;;15.80;49.50;;;;;;4979086;28;45220;-67
2023/04/07 07:37:26;;;;;;;1.58;1.10;;;15.80;49.50;;;;;;4954773;28;45308;-66
2023/04/07 07:39:52;;;;;;;1.20;1.10;;;15.80;49.50;;;;;;4960506;28;45410;-67
2023/04/07 07:42:18;;;;;;;1.80;1.30;;;15.80;50.00;;;;;;4976333;28;46143;-66
2023/04/07 07:44:43;;;;;;;1.10;1.00;;;15.80;49.40;;;;;;4983236;28;45314;-66
2023/04/07 07:47:09;;;;;;;1.40;1.02;;;15.80;49.40;;;;;;4976334;28;44758;-66
2023/04/07 07:49:34;;;;;;;1.65;1.20;;;15.80;49.40;;;;;;4979663;28;45281;-66
2023/04/07 07:52:01;;;;;;;1.63;1.33;;;15.80;49.40;;;;;;4976574;28;45860;-67
2023/04/07 07:54:26;;;;;;;1.52;1.10;;;15.80;49.40;;;;;;4980444;28;45744;-66
2023/04/07 07:56:52;;;;;;;1.33;1.10;;;15.80;49.40;;;;;;4990854;28;45263;-66
2023/04/07 07:59:17;;;;;;;1.42;1.30;;;15.80;49.30;;;;;;4992950;28;45550;-67
2023/04/07 08:01:43;;;;;;;1.23;1.10;;;15.90;49.30;;;;;;4950978;28;46955;-66
2023/04/07 08:04:09;;;;;;;1.33;0.90;;;15.90;49.90;;;;;;4997455;28;45594;-67
2023/04/07 08:06:35;;;;;;;1.17;0.90;;;15.90;49.30;;;;;;4957473;28;45259;-66
2023/04/07 08:09:00;;;;;;;1.13;0.88;;;15.90;49.30;;;;;;4995056;28;45342;-67
2023/04/07 08:11:26;;;;;;;1.45;1.02;;;15.90;49.30;;;;;;4971886;28;48115;-66
2023/04/07 08:13:52;;;;;;;1.30;1.00;;;15.90;49.30;;;;;;4997627;28;45271;-66
2023/04/07 08:16:18;;;;;;;1.13;1.00;;;15.90;49.30;;;;;;4959356;28;45357;-66
2023/04/07 08:18:44;;;;;;;1.30;1.20;;;15.90;49.30;;;;;;4967622;28;45259;-66
2023/04/07 08:21:10;;;;;;;1.45;1.20;;;15.90;49.30;;;;;;4957624;28;47060;-66
2023/04/07 08:23:35;;;;;;;0.77;0.70;;;15.90;49.30;;;;;;4982005;28;45145;-66
2023/04/07 08:26:01;;;;;;;1.40;1.00;;;15.90;49.20;;;;;;4975688;28;45649;-66
2023/04/07 08:28:26;;;;;;;0.95;0.85;;;15.90;49.30;;;;;;4961937;28;45205;-66
2023/04/07 08:30:52;;;;;;;1.15;1.05;;;15.90;49.30;;;;;;4985697;28;47113;-67
2023/04/07 08:33:17;;;;;;;1.05;0.90;;;15.90;49.30;;;;;;4982664;28;45167;-67
2023/04/07 08:35:43;;;;;;;1.27;0.88;;;15.90;49.20;;;;;;4979611;28;45808;-66
2023/04/07 08:38:08;;;;;;;1.55;1.13;;;15.90;49.30;;;;;;4994239;28;45014;-66
2023/04/07 08:40:34;;;;;;;3.95;1.10;;;15.90;49.30;;;;;;4978398;28;46151;-66
2023/04/07 08:43:00;;;;;;;1.30;1.08;;;15.90;49.20;;;;;;4967693;28;44982;-66
2023/04/07 08:45:25;;;;;;;1.40;1.10;;;15.90;49.20;;;;;;4971018;28;45172;-66
2023/04/07 08:47:55;;;;;;;1.17;1.00;;;15.90;49.20;;;;;;4986978;28;45028;-67
2023/04/07 08:50:21;;;;;;;1.20;1.10;;;15.90;49.20;;;;;;4955458;28;45589;-67
2023/04/07 08:52:52;;;;;;;1.35;1.20;;;15.90;49.20;;;;;;4958795;28;45329;-67
2023/04/07 08:55:18;;;;;;;1.20;1.10;;;15.90;49.20;;;;;;4932196;28;45617;-66
2023/04/07 08:57:44;;;;;;;1.35;1.10;;;15.90;49.20;;;;;;4964902;28;45298;-66
2023/04/07 09:00:10;;;;;;;1.33;0.88;;;15.90;49.30;;;;;;4954897;28;46430;-67
2023/04/07 09:02:37;;;;;;;2.00;1.13;;;15.90;49.30;;;;;;4957469;28;45551;-66
2023/04/07 09:05:03;;;;;;;2.10;1.33;;;15.90;49.20;;;;;;4959902;28;45246;-66
2023/04/07 09:07:33;;;;;;;1.35;1.10;;;16.00;49.30;;;;;;4976573;28;45216;-66
2023/04/07 09:09:59;;;;;;;0.98;0.90;;;15.90;49.20;;;;;;4974112;28;46221;-66
2023/04/07 09:12:26;;;;;;;1.13;0.95;;;15.90;49.20;;;;;;4955858;28;45307;-67
2023/04/07 09:14:52;;;;;;;0.95;0.90;;;16.00;49.20;;;;;;4960069;28;45681;-66
2023/04/07 09:17:18;;;;;;;1.60;0.85;;;16.00;49.20;;;;;;4950732;28;45543;-67
2023/04/07 09:19:43;;;;;;;1.38;1.13;;;15.90;49.20;;;;;;4979916;28;45361;-66
2023/04/07 09:22:11;;;;;;;1.40;1.00;;;16.00;49.20;;;;;;4978033;28;45228;-66
2023/04/07 09:24:37;;;;;;;1.10;1.00;;;16.00;49.20;;;;;;4962004;28;45270;-66
2023/04/07 09:27:16;;;;;;;1.27;1.05;;;16.00;49.20;;;;;;4973369;28;45192;-66
2023/04/07 09:29:43;;;;;;;1.15;0.93;;;16.00;49.20;;;;;;4970373;28;45254;-66
2023/04/07 09:32:09;;;;;;;1.25;0.90;;;16.00;49.80;;;;;;4952223;28;44954;-67
2023/04/07 09:34:36;;;;;;;1.85;1.10;;;16.00;49.20;;;;;;4976217;28;45579;-66
2023/04/07 09:37:01;;;;;;;1.30;0.95;;;16.00;49.10;;;;;;4991122;28;45755;-67
2023/04/07 09:39:27;;;;;;;1.52;1.17;;;16.00;49.10;;;;;;4960827;28;45955;-67
2023/04/07 09:41:53;;;;;;;1.33;1.02;;;16.00;49.10;;;;;;4970189;28;45191;-66
2023/04/07 09:44:19;;;;;;;1.17;1.00;;;16.00;49.10;;;;;;4966561;28;45465;-66
2023/04/07 09:46:51;;;;;;;1.23;0.90;;;16.00;49.10;;;;;;4952746;28;46000;-66
2023/04/07 09:49:19;;;;;;;0.80;0.80;;;16.10;49.00;;;;;;4992606;28;45330;-66
2023/04/07 09:52:06;;;;;;;3.03;1.20;;;16.10;49.00;;;;;;4943644;28;45892;-66
2023/04/07 09:54:36;;;;;;;1.27;0.93;;;16.10;49.00;;;;;;4974978;28;45187;-66
2023/04/07 09:57:02;;;;;;;1.13;0.98;;;16.10;49.00;;;;;;4971092;28;45375;-66
2023/04/07 09:59:29;;;;;;;0.75;0.70;;;16.10;49.00;;;;;;4963879;28;46280;-67
2023/04/07 10:01:55;;;;;;;0.90;0.80;;;16.10;49.00;;;;;;4949101;28;45111;-67
2023/04/07 10:04:21;;;;;;;1.48;1.00;;;16.10;48.90;;;;;;4972303;28;45232;-67
2023/04/07 10:06:46;;;;;;;1.50;0.80;;;16.10;48.90;;;;;;4933377;28;45543;-67
2023/04/07 10:09:12;;;;;;;1.00;0.90;;;16.10;48.90;;;;;;4954985;28;46228;-67
2023/04/07 10:11:41;;;;;;;0.73;0.73;;;16.10;48.90;;;;;;4960568;28;45538;-67
2023/04/07 10:14:08;;;;;;;1.30;1.10;;;16.20;48.90;;;;;;4940178;28;45273;-66
2023/04/07 10:16:33;;;;;;;1.23;1.13;;;16.20;48.90;;;;;;4945476;28;45187;-67
2023/04/07 10:18:59;;;;;;;1.00;0.90;;;16.20;48.90;;;;;;4934959;28;47072;-67
2023/04/07 10:21:26;;;;;;;1.10;1.00;;;16.20;48.90;;;;;;4965294;28;46071;-67
2023/04/07 10:24:14;;;;;;;1.45;0.95;;;16.20;48.90;;;;;;4954490;28;45549;-67
2023/04/07 10:26:40;;;;;;;1.10;1.00;;;16.20;48.90;;;;;;4967068;28;45501;-67
2023/04/07 10:29:07;;;;;;;1.80;1.00;;;16.20;48.90;;;;;;4975013;28;46691;-67
2023/04/07 10:31:33;;;;;;;1.40;1.10;;;16.20;48.90;;;;;;4947366;28;45737;-67
2023/04/07 10:34:00;;;;;;;1.42;1.00;;;16.20;48.80;;;;;;4972691;28;45601;-67
2023/04/07 10:36:27;;;;;;;1.20;1.00;;;16.20;48.80;;;;;;4951415;28;45588;-66
2023/04/07 10:39:08;;;;;;;1.13;0.88;;;16.20;48.80;;;;;;4975168;28;46097;-67
2023/04/07 10:41:37;;;;;;;1.00;0.90;;;16.20;48.80;;;;;;4966271;28;45041;-67
2023/04/07 10:44:04;;;;;;;1.40;1.30;;;16.30;48.80;;;;;;4974942;28;45317;-66
2023/04/07 10:46:45;;;;;;;1.30;1.10;;;16.30;48.80;;;;;;4964113;28;45663;-67
2023/04/07 10:49:12;;;;;;;1.42;1.00;;;16.30;48.80;;;;;;4968757;28;46228;-67
2023/04/07 10:51:37;;;;;;;1.90;0.90;;;16.30;48.80;;;;;;4951810;28;44745;-67
2023/04/07 10:54:35;;;;;;;1.27;1.00;;;16.30;48.80;;;;;;4958943;28;45536;-67
2023/04/07 10:57:01;;;;;;;1.30;1.02;;;16.30;48.70;;;;;;4926794;28;45045;-66
2023/04/07 10:59:28;;;;;;;1.45;1.08;;;16.30;48.80;;;;;;4973640;28;46073;-67
2023/04/07 11:02:12;;;;;;;1.27;1.10;;;16.30;48.70;;;;;;4960399;28;45247;-66
2023/04/07 11:04:38;;;;;;;1.52;1.20;;;16.30;48.70;;;;;;4973031;28;44702;-67
2023/04/07 11:07:03;;;;;;;1.42;0.98;;;16.40;48.80;;;;;;4952741;28;45394;-66
2023/04/07 11:09:29;;;;;;;1.25;0.98;;;16.40;48.80;;;;;;4950828;28;47239;-67
2023/04/07 11:11:55;;;;;;;1.40;1.05;;;16.40;48.70;;;;;;4964627;28;45368;-67
2023/04/07 11:14:26;;;;;;;1.77;1.30;;;16.40;48.70;;;;;;4957253;28;45309;-66
2023/04/07 11:16:51;;;;;;;1.13;0.95;;;16.40;48.70;;;;;;4962865;28;45421;-67
2023/04/07 11:19:17;;;;;;;1.13;1.02;;;16.40;48.80;;;;;;4973211;28;47149;-67
2023/04/07 11:21:42;;;;;;;1.08;0.95;;;16.40;48.80;;;;;;4967450;28;44722;-66
2023/04/07 11:24:08;;;;;;;1.50;0.80;;;16.40;48.80;;;;;;4978396;28;45278;-66
2023/04/07 11:26:38;;;;;;;1.05;0.90;;;16.40;48.70;;;;;;4964118;28;45747;-67
2023/04/07 11:29:03;;;;;;;1.15;1.02;;;16.40;48.70;;;;;;4957564;28;48111;-66
2023/04/07 11:31:32;;;;;;;1.00;0.80;;;16.40;48.70;;;;;;4961712;28;45570;-67
2023/04/07 11:34:00;;;;;;;1.85;0.80;;;16.40;48.70;;;;;;4973655;28;45381;-66
2023/04/07 11:36:33;;;;;;;1.20;1.10;;;16.50;48.70;;;;;;4965497;28;44749;-67
2023/04/07 11:38:59;;;;;;;1.13;1.02;;;16.50;48.70;;;;;;4971155;28;46189;-66
2023/04/07 11:41:26;;;;;;;1.17;0.80;;;16.50;48.60;;;;;;4953079;28;45549;-66
2023/04/07 11:44:11;;;;;;;1.02;1.00;;;16.50;48.60;;;;;;4963612;28;44981;-67
2023/04/07 11:46:53;;;;;;;0.98;0.73;;;16.50;48.50;;;;;;4945891;28;45315;-67
2023/04/07 11:49:19;;;;;;;1.20;1.02;;;16.50;48.60;;;;;;4975234;28;46164;-67
2023/04/07 11:51:45;;;;;;;1.10;1.00;;;16.50;48.60;;;;;;4964589;28;45240;-67
2023/04/07 11:54:11;;;;;;;1.00;0.90;;;16.50;48.60;;;;;;4944801;28;45369;-67
2023/04/07 11:56:46;;;;;;;3.00;1.00;;;16.50;48.60;;;;;;4951541;28;45200;-66
2023/04/07 11:59:22;;;;;;;1.80;0.90;;;16.50;48.60;;;;;;4967650;28;45340;-67
2023/04/07 12:01:48;;;;;;;1.00;0.73;;;16.50;48.60;;;;;;4948313;28;45347;-67
2023/04/07 12:04:15;;;;;;;1.20;1.00;;;16.50;48.60;;;;;;4956531;28;44785;-67
2023/04/07 12:06:41;;;;;;;1.00;0.90;;;16.50;48.60;;;;;;4949265;28;45797;-67
2023/04/07 12:09:07;;;;;;;0.60;0.60;;;16.50;48.60;;;;;;4974398;28;45280;-66
2023/04/07 12:11:34;;;;;;;0.80;0.80;;;16.50;48.60;;;;;;4954231;28;45386;-67
2023/04/07 12:14:00;;;;;;;1.00;0.82;;;16.50;48.60;;;;;;4930448;28;45243;-67
2023/04/07 12:16:26;;;;;;;0.85;0.85;;;16.60;48.60;;;;;;4962696;28;45418;-67
2023/04/07 12:18:52;;;;;;;2.75;0.85;;;16.60;48.60;;;;;;4971305;28;45980;-66
2023/04/07 12:21:18;;;;;;;0.93;0.90;;;16.50;48.60;;;;;;4964596;28;45416;-67
2023/04/07 12:23:44;;;;;;;1.27;0.90;;;16.60;48.60;;;;;;4956686;28;45350;-67
2023/04/07 12:26:10;;;;;;;1.00;0.90;;;16.60;48.70;;;;;;4962584;28;45019;-66
2023/04/07 12:28:36;;;;;;;1.00;0.90;;;16.60;49.20;;;;;;4970853;28;47773;-67
2023/04/07 12:31:03;;;;;;;1.05;0.95;;;16.60;48.60;;;;;;4963577;28;45828;-67
2023/04/07 12:33:28;;;;;;;0.95;0.88;;;16.60;48.60;;;;;;4971447;28;45712;-66
2023/04/07 12:35:54;;;;;;;1.35;1.00;;;16.60;48.60;;;;;;4965279;28;46066;-67
2023/04/07 12:38:20;;;;;;;0.80;0.70;;;16.60;48.60;;;;;;4973901;28;45322;-66
2023/04/07 12:40:45;;;;;;;1.20;0.98;;;16.60;48.60;;;;;;4967493;28;46243;-67
2023/04/07 12:43:11;;;;;;;1.13;0.90;;;16.60;48.60;;;;;;4960334;28;45398;-67
2023/04/07 12:45:37;;;;;;;1.08;0.93;;;16.60;48.60;;;;;;4946960;28;45467;-67
2023/04/07 12:48:03;;;;;;;1.88;1.15;;;16.60;48.60;;;;;;4968931;28;46091;-67
2023/04/07 12:50:29;;;;;;;1.00;0.90;;;16.60;48.60;;;;;;4967675;28;45272;-67
2023/04/07 12:52:54;;;;;;;1.33;1.08;;;16.60;48.60;;;;;;4953454;28;45294;-66
2023/04/07 12:55:20;;;;;;;0.75;0.75;;;16.60;48.60;;;;;;4953541;28;45647;-67
2023/04/07 12:57:46;;;;;;;1.25;1.00;;;16.60;48.60;;;;;;4951997;28;47081;-67
2023/04/07 13:00:13;;;;;;;1.00;0.88;;;16.60;49.20;;;;;;4966875;28;44930;-66
2023/04/07 13:02:38;;;;;;;0.90;0.70;;;16.60;48.60;;;;;;4953524;28;45444;-66
2023/04/07 13:05:04;;;;;;;1.02;0.95;;;16.60;48.60;;;;;;4970501;28;46129;-67
2023/04/07 13:07:30;;;;;;;1.27;1.00;;;16.70;48.60;;;;;;4952516;28;46977;-67
2023/04/07 13:09:56;;;;;;;1.10;1.00;;;16.70;48.60;;;;;;4970911;28;45019;-66
2023/04/07 13:12:22;;;;;;;3.10;0.88;;;16.70;48.60;;;;;;4973554;28;45832;-67
2023/04/07 13:14:48;;;;;;;1.23;1.02;;;16.70;48.60;;;;;;4957793;28;46500;-66
2023/04/07 13:17:13;;;;;;;1.05;0.95;;;16.70;48.60;;;;;;4959310;28;45701;-66
2023/04/07 13:19:39;;;;;;;0.98;0.80;;;16.70;48.60;;;;;;4968335;28;45152;-67
2023/04/07 13:22:04;;;;;;;1.10;0.98;;;16.70;48.60;;;;;;4966684;28;45804;-66
2023/04/07 13:24:30;;;;;;;1.10;1.00;;;16.70;48.70;;;;;;4971703;28;45171;-66
2023/04/07 13:26:57;;;;;;;2.63;0.82;;;16.70;48.60;;;;;;4943813;28;46263;-66
2023/04/07 13:29:23;;;;;;;1.10;1.00;;;16.70;48.60;;;;;;4967506;28;44756;-67
2023/04/07 13:31:48;;;;;;;0.98;0.90;;;16.70;48.60;;;;;;4954510;28;45459;-66
2023/04/07 13:34:14;;;;;;;1.20;1.10;;;16.70;48.60;;;;;;4968842;28;45552;-66
2023/04/07 13:36:40;;;;;;;1.00;0.80;;;16.70;48.50;;;;;;4951947;28;46374;-66
2023/04/07 13:39:05;;;;;;;1.05;0.95;;;16.70;48.50;;;;;;4967446;28;45517;-67
2023/04/07 13:41:31;;;;;;;0.75;0.75;;;16.70;48.50;;;;;;4961568;28;46153;-67
2023/04/07 13:44:00;;;;;;;1.48;1.10;;;16.70;48.50;;;;;;4971700;28;45228;-66
2023/04/07 13:46:25;;;;;;;1.17;0.88;;;16.70;48.50;;;;;;4970075;28;46178;-66
2023/04/07 13:48:51;;;;;;;1.50;1.38;;;16.70;48.50;;;;;;4951734;28;45649;-66
2023/04/07 13:51:17;;;;;;;0.80;0.80;;;16.80;48.50;;;;;;4963781;28;45255;-66
2023/04/07 13:53:42;;;;;;;1.10;1.00;;;16.80;48.50;;;;;;4961264;28;46414;-67
2023/04/07 13:56:09;;;;;;;1.08;0.98;;;16.80;48.50;;;;;;4958815;28;46439;-66
2023/04/07 13:58:34;;;;;;;1.35;0.80;;;16.80;48.50;;;;;;4963446;28;45170;-66
2023/04/07 14:01:00;;;;;;;1.35;1.00;;;16.80;48.50;;;;;;4941301;28;46674;-66
2023/04/07 14:03:27;;;;;;;0.80;0.80;;;16.80;48.60;;;;;;4955250;28;45803;-67
2023/04/07 14:05:52;;;;;;;1.00;0.80;;;16.80;48.60;;;;;;4954629;28;45762;-67
2023/04/07 14:08:19;;;;;;;1.23;1.02;;;16.80;48.60;;;;;;4988096;28;46042;-67
2023/04/07 14:10:45;;;;;;;0.90;0.80;;;16.80;48.60;;;;;;4959646;28;45271;-67
2023/04/07 14:13:10;;;;;;;1.20;1.10;;;16.80;48.70;;;;;;4989806;28;45245;-66
2023/04/07 14:15:36;;;;;;;1.02;0.90;;;16.80;48.70;;;;;;4963714;28;46269;-67
2023/04/07 14:18:02;;;;;;;0.90;0.90;;;16.80;48.70;;;;;;4950924;28;45903;-67
2023/04/07 14:20:27;;;;;;;1.05;0.95;;;16.80;48.70;;;;;;4963912;28;45912;-67
2023/04/07 14:22:53;;;;;;;1.52;1.08;;;16.80;48.70;;;;;;4969883;28;45631;-67
2023/04/07 14:25:19;;;;;;;1.10;0.93;;;16.80;48.70;;;;;;4951945;28;47186;-67
2023/04/07 14:27:45;;;;;;;0.70;0.70;;;16.80;48.70;;;;;;4972294;28;46521;-67
2023/04/07 14:30:11;;;;;;;1.02;0.88;;;16.80;48.70;;;;;;4980989;28;45409;-66
2023/04/07 14:32:36;;;;;;;1.40;1.10;;;16.80;48.70;;;;;;4964790;28;45175;-66
2023/04/07 14:35:02;;;;;;;0.95;0.88;;;16.80;49.00;;;;;;4973209;28;45236;-67
2023/04/07 14:37:28;;;;;;;1.02;0.93;;;16.80;48.80;;;;;;4940721;28;45266;-67
2023/04/07 14:39:53;;;;;;;1.05;0.95;;;16.70;48.70;;;;;;4952769;28;45605;-66
2023/04/07 14:42:19;;;;;;;1.30;1.02;;;16.70;48.80;;;;;;4949429;28;45662;-66
2023/04/07 14:44:45;;;;;;;1.30;1.00;;;16.70;48.80;;;;;;4957599;28;45955;-67
2023/04/07 14:47:11;;;;;;;1.13;1.02;;;16.80;48.80;;;;;;4945660;28;48408;-66
2023/04/07 14:49:37;;;;;;;1.20;0.90;;;16.80;48.80;;;;;;4968594;28;44977;-66
2023/04/07 14:52:02;;;;;;;1.77;0.90;;;16.80;48.70;;;;;;4951803;28;46554;-67
2023/04/07 14:54:28;;;;;;;0.93;0.82;;;16.80;48.70;;;;;;4976332;28;45497;-67
2023/04/07 14:56:54;;;;;;;1.15;0.85;;;16.80;48.70;;;;;;4965123;28;45398;-66
2023/04/07 14:59:19;;;;;;;1.05;0.90;;;16.80;48.70;;;;;;4974944;28;45280;-67
2023/04/07 15:01:45;;;;;;;1.73;1.20;;;16.80;48.70;;;;;;4960138;28;45396;-66
2023/04/07 15:04:10;;;;;;;1.23;0.93;;;16.80;48.70;;;;;;4975570;28;45740;-67
2023/04/07 15:06:36;;;;;;;1.60;1.15;;;16.80;48.70;;;;;;4983805;28;45198;-66
2023/04/07 15:09:02;;;;;;;0.93;0.85;;;16.80;48.60;;;;;;4962435;28;44709;-67
2023/04/07 15:11:27;;;;;;;1.45;0.80;;;16.80;48.70;;;;;;4968374;28;45366;-67
2023/04/07 15:13:53;;;;;;;0.80;0.80;;;16.80;48.70;;;;;;4969835;28;46235;-67
2023/04/07 15:16:19;;;;;;;1.13;1.02;;;16.80;48.70;;;;;;4978449;28;45212;-66
2023/04/07 15:18:45;;;;;;;0.85;0.85;;;16.80;48.70;;;;;;4954560;28;45192;-67
2023/04/07 15:21:11;;;;;;;0.80;0.80;;;16.80;48.60;;;;;;4967598;28;45401;-67
2023/04/07 15:23:37;;;;;;;0.90;0.82;;;16.80;48.70;;;;;;4957926;28;45492;-66
2023/04/07 15:26:04;;;;;;;0.75;0.75;;;16.80;48.60;;;;;;4956506;28;45419;-66
2023/04/07 15:28:29;;;;;;;1.00;0.95;;;16.80;48.60;;;;;;4946209;28;45190;-67
2023/04/07 15:30:55;;;;;;;0.93;0.80;;;16.80;48.70;;;;;;4959542;28;46479;-66
2023/04/07 15:33:21;;;;;;;1.00;0.90;;;16.80;48.70;;;;;;4972277;28;47094;-67
2023/04/07 15:35:46;;;;;;;1.00;0.90;;;16.80;48.70;;;;;;4967315;28;44913;-66
2023/04/07 15:38:12;;;;;;;1.30;1.00;;;16.80;48.70;;;;;;4970182;28;45705;-67
2023/04/07 15:40:37;;;;;;;1.75;1.00;;;16.80;48.70;;;;;;4965796;28;45458;-67
2023/04/07 15:43:03;;;;;;;1.02;0.95;;;16.80;48.70;;;;;;4967850;28;46053;-67
2023/04/07 15:45:29;;;;;;;1.10;1.00;;;16.80;48.70;;;;;;4964917;28;45690;-66